sensor_id;sensor_type;location;lat;lon;timestamp;P1;durP1;ratioP1;P2;durP2;ratioP2
15358;SDS011;7779;49.596;11.070;2022-08-19T00:02:07;11.97;;;10.87;;
15358;SDS011;7779;49.596;11.070;2022-08-19T00:04:34;11.77;;;10.77;;
15358;SDS011;7779;49.596;11.070;2022-08-19T00:07:02;11.07;;;10.17;;
15358;SDS011;7779;49.596;11.070;2022-08-19T00:09:32;11.70;;;10.60;;
15358;SDS011;7779;49.596;11.070;2022-08-19T00:11:58;10.67;;;9.67;;
15358;SDS011;7779;49.596;11.070;2022-08-19T00:14:25;11.07;;;10.17;;
15358;SDS011;7779;49.596;11.070;2022-08-19T00:16:56;11.33;;;10.23;;
15358;SDS011;7779;49.596;11.070;2022-08-19T00:19:23;11.57;;;10.47;;
15358;SDS011;7779;49.596;11.070;2022-08-19T00:21:49;11.37;;;10.37;;
15358;SDS011;7779;49.596;11.070;2022-08-19T00:24:15;10.57;;;9.67;;
15358;SDS011;7779;49.596;11.070;2022-08-19T00:26:42;10.90;;;9.90;;
15358;SDS011;7779;49.596;11.070;2022-08-19T00:29:10;11.10;;;10.10;;
15358;SDS011;7779;49.596;11.070;2022-08-19T00:31:40;10.67;;;9.77;;
15358;SDS011;7779;49.596;11.070;2022-08-19T00:34:08;11.30;;;10.17;;
15358;SDS011;7779;49.596;11.070;2022-08-19T00:36:34;10.87;;;9.87;;
15358;SDS011;7779;49.596;11.070;2022-08-19T00:39:00;11.23;;;10.23;;
15358;SDS011;7779;49.596;11.070;2022-08-19T00:41:26;11.80;;;10.70;;
15358;SDS011;7779;49.596;11.070;2022-08-19T00:44:00;11.07;;;10.07;;
15358;SDS011;7779;49.596;11.070;2022-08-19T00:46:30;10.93;;;9.93;;
15358;SDS011;7779;49.596;11.070;2022-08-19T00:48:58;12.00;;;10.90;;
15358;SDS011;7779;49.596;11.070;2022-08-19T00:51:31;11.03;;;10.03;;
15358;SDS011;7779;49.596;11.070;2022-08-19T00:53:57;11.23;;;10.23;;
15358;SDS011;7779;49.596;11.070;2022-08-19T00:56:26;12.07;;;10.97;;
15358;SDS011;7779;49.596;11.070;2022-08-19T00:58:54;11.20;;;10.20;;
15358;SDS011;7779;49.596;11.070;2022-08-19T01:01:23;11.57;;;10.43;;
15358;SDS011;7779;49.596;11.070;2022-08-19T01:03:50;12.63;;;11.53;;
15358;SDS011;7779;49.596;11.070;2022-08-19T01:06:16;11.30;;;10.30;;
15358;SDS011;7779;49.596;11.070;2022-08-19T01:08:42;11.40;;;10.47;;
15358;SDS011;7779;49.596;11.070;2022-08-19T01:11:08;11.80;;;10.70;;
15358;SDS011;7779;49.596;11.070;2022-08-19T01:13:35;11.57;;;10.47;;
15358;SDS011;7779;49.596;11.070;2022-08-19T01:16:04;11.37;;;10.30;;
15358;SDS011;7779;49.596;11.070;2022-08-19T01:18:38;11.97;;;10.93;;
15358;SDS011;7779;49.596;11.070;2022-08-19T01:21:12;11.10;;;10.10;;
15358;SDS011;7779;49.596;11.070;2022-08-19T01:23:58;11.50;;;10.50;;
15358;SDS011;7779;49.596;11.070;2022-08-19T01:26:24;11.73;;;10.73;;
15358;SDS011;7779;49.596;11.070;2022-08-19T01:28:53;11.53;;;10.53;;
15358;SDS011;7779;49.596;11.070;2022-08-19T01:31:23;11.30;;;10.40;;
15358;SDS011;7779;49.596;11.070;2022-08-19T01:33:52;12.30;;;11.20;;
15358;SDS011;7779;49.596;11.070;2022-08-19T01:38:54;12.27;;;11.10;;
15358;SDS011;7779;49.596;11.070;2022-08-19T01:41:21;12.17;;;11.17;;
15358;SDS011;7779;49.596;11.070;2022-08-19T01:43:48;11.80;;;10.67;;
15358;SDS011;7779;49.596;11.070;2022-08-19T01:46:16;12.50;;;11.40;;
15358;SDS011;7779;49.596;11.070;2022-08-19T01:48:43;12.40;;;11.20;;
15358;SDS011;7779;49.596;11.070;2022-08-19T01:51:10;12.83;;;11.63;;
15358;SDS011;7779;49.596;11.070;2022-08-19T01:53:37;10.90;;;10.00;;
15358;SDS011;7779;49.596;11.070;2022-08-19T01:56:05;12.57;;;11.37;;
15358;SDS011;7779;49.596;11.070;2022-08-19T01:58:44;11.87;;;10.80;;
15358;SDS011;7779;49.596;11.070;2022-08-19T02:01:19;12.40;;;11.30;;
15358;SDS011;7779;49.596;11.070;2022-08-19T02:03:45;12.63;;;11.53;;
15358;SDS011;7779;49.596;11.070;2022-08-19T02:06:11;12.90;;;11.80;;
15358;SDS011;7779;49.596;11.070;2022-08-19T02:08:39;12.97;;;11.87;;
15358;SDS011;7779;49.596;11.070;2022-08-19T02:11:05;13.57;;;12.37;;
15358;SDS011;7779;49.596;11.070;2022-08-19T02:13:33;13.80;;;12.43;;
15358;SDS011;7779;49.596;11.070;2022-08-19T02:15:59;12.83;;;11.73;;
15358;SDS011;7779;49.596;11.070;2022-08-19T02:18:25;12.70;;;11.60;;
15358;SDS011;7779;49.596;11.070;2022-08-19T02:20:51;13.43;;;12.23;;
15358;SDS011;7779;49.596;11.070;2022-08-19T02:23:17;13.10;;;11.90;;
15358;SDS011;7779;49.596;11.070;2022-08-19T02:25:47;12.97;;;11.77;;
15358;SDS011;7779;49.596;11.070;2022-08-19T02:28:13;14.07;;;12.07;;
15358;SDS011;7779;49.596;11.070;2022-08-19T02:30:40;13.13;;;11.93;;
15358;SDS011;7779;49.596;11.070;2022-08-19T02:33:07;13.83;;;12.63;;
15358;SDS011;7779;49.596;11.070;2022-08-19T02:35:33;13.80;;;12.50;;
15358;SDS011;7779;49.596;11.070;2022-08-19T02:37:59;13.00;;;11.77;;
15358;SDS011;7779;49.596;11.070;2022-08-19T02:40:50;13.73;;;12.43;;
15358;SDS011;7779;49.596;11.070;2022-08-19T02:43:23;14.43;;;13.03;;
15358;SDS011;7779;49.596;11.070;2022-08-19T02:45:50;13.93;;;12.63;;
15358;SDS011;7779;49.596;11.070;2022-08-19T02:48:18;14.53;;;13.23;;
15358;SDS011;7779;49.596;11.070;2022-08-19T02:50:46;14.47;;;13.20;;
15358;SDS011;7779;49.596;11.070;2022-08-19T02:53:23;13.20;;;11.90;;
15358;SDS011;7779;49.596;11.070;2022-08-19T02:55:52;14.00;;;12.70;;
15358;SDS011;7779;49.596;11.070;2022-08-19T02:58:19;13.97;;;12.67;;
15358;SDS011;7779;49.596;11.070;2022-08-19T03:00:47;13.73;;;12.43;;
15358;SDS011;7779;49.596;11.070;2022-08-19T03:03:18;14.27;;;12.97;;
15358;SDS011;7779;49.596;11.070;2022-08-19T03:05:45;14.30;;;13.10;;
15358;SDS011;7779;49.596;11.070;2022-08-19T03:08:11;14.47;;;13.17;;
15358;SDS011;7779;49.596;11.070;2022-08-19T03:10:40;13.87;;;12.67;;
15358;SDS011;7779;49.596;11.070;2022-08-19T03:13:15;14.80;;;13.30;;
15358;SDS011;7779;49.596;11.070;2022-08-19T03:15:43;13.70;;;12.50;;
15358;SDS011;7779;49.596;11.070;2022-08-19T03:18:13;13.87;;;12.60;;
15358;SDS011;7779;49.596;11.070;2022-08-19T03:20:41;14.57;;;13.27;;
15358;SDS011;7779;49.596;11.070;2022-08-19T03:23:13;13.57;;;12.37;;
15358;SDS011;7779;49.596;11.070;2022-08-19T03:25:47;14.67;;;13.27;;
15358;SDS011;7779;49.596;11.070;2022-08-19T03:28:15;14.13;;;12.83;;
15358;SDS011;7779;49.596;11.070;2022-08-19T03:30:42;14.60;;;13.23;;
15358;SDS011;7779;49.596;11.070;2022-08-19T03:33:22;14.87;;;13.47;;
15358;SDS011;7779;49.596;11.070;2022-08-19T03:35:58;13.53;;;12.23;;
15358;SDS011;7779;49.596;11.070;2022-08-19T03:38:42;15.10;;;13.70;;
15358;SDS011;7779;49.596;11.070;2022-08-19T03:41:13;14.33;;;12.97;;
15358;SDS011;7779;49.596;11.070;2022-08-19T03:43:45;14.93;;;13.63;;
15358;SDS011;7779;49.596;11.070;2022-08-19T03:46:14;13.93;;;12.57;;
15358;SDS011;7779;49.596;11.070;2022-08-19T03:48:47;14.73;;;13.33;;
15358;SDS011;7779;49.596;11.070;2022-08-19T03:53:54;14.03;;;12.60;;
15358;SDS011;7779;49.596;11.070;2022-08-19T03:56:20;13.87;;;12.57;;
15358;SDS011;7779;49.596;11.070;2022-08-19T03:58:47;15.13;;;13.70;;
15358;SDS011;7779;49.596;11.070;2022-08-19T04:01:14;14.33;;;13.03;;
15358;SDS011;7779;49.596;11.070;2022-08-19T04:03:44;14.13;;;12.83;;
15358;SDS011;7779;49.596;11.070;2022-08-19T04:08:44;14.37;;;12.97;;
15358;SDS011;7779;49.596;11.070;2022-08-19T04:11:12;15.57;;;14.00;;
15358;SDS011;7779;49.596;11.070;2022-08-19T04:13:41;15.67;;;14.17;;
15358;SDS011;7779;49.596;11.070;2022-08-19T04:16:09;15.13;;;13.73;;
15358;SDS011;7779;49.596;11.070;2022-08-19T04:18:36;15.40;;;13.90;;
15358;SDS011;7779;49.596;11.070;2022-08-19T04:21:04;14.97;;;13.47;;
15358;SDS011;7779;49.596;11.070;2022-08-19T04:23:33;14.77;;;13.37;;
15358;SDS011;7779;49.596;11.070;2022-08-19T04:26:03;15.73;;;14.23;;
15358;SDS011;7779;49.596;11.070;2022-08-19T04:28:28;15.57;;;14.13;;
15358;SDS011;7779;49.596;11.070;2022-08-19T04:30:54;16.00;;;14.50;;
15358;SDS011;7779;49.596;11.070;2022-08-19T04:33:23;15.93;;;14.43;;
15358;SDS011;7779;49.596;11.070;2022-08-19T04:35:50;16.40;;;14.87;;
15358;SDS011;7779;49.596;11.070;2022-08-19T04:38:18;16.10;;;14.40;;
15358;SDS011;7779;49.596;11.070;2022-08-19T04:40:48;16.77;;;15.13;;
15358;SDS011;7779;49.596;11.070;2022-08-19T04:43:35;15.70;;;14.20;;
15358;SDS011;7779;49.596;11.070;2022-08-19T04:46:07;15.77;;;14.37;;
15358;SDS011;7779;49.596;11.070;2022-08-19T04:48:36;16.37;;;14.77;;
15358;SDS011;7779;49.596;11.070;2022-08-19T04:51:06;16.20;;;14.70;;
15358;SDS011;7779;49.596;11.070;2022-08-19T04:53:37;16.20;;;14.60;;
15358;SDS011;7779;49.596;11.070;2022-08-19T04:56:07;16.43;;;14.83;;
15358;SDS011;7779;49.596;11.070;2022-08-19T04:58:38;16.77;;;15.13;;
15358;SDS011;7779;49.596;11.070;2022-08-19T05:01:13;16.57;;;14.97;;
15358;SDS011;7779;49.596;11.070;2022-08-19T05:03:46;17.67;;;15.97;;
15358;SDS011;7779;49.596;11.070;2022-08-19T05:06:14;16.20;;;14.70;;
15358;SDS011;7779;49.596;11.070;2022-08-19T05:08:44;16.93;;;15.23;;
15358;SDS011;7779;49.596;11.070;2022-08-19T05:11:13;16.57;;;14.97;;
15358;SDS011;7779;49.596;11.070;2022-08-19T05:13:46;16.47;;;14.87;;
15358;SDS011;7779;49.596;11.070;2022-08-19T05:16:14;16.93;;;15.23;;
15358;SDS011;7779;49.596;11.070;2022-08-19T05:18:43;17.30;;;15.60;;
15358;SDS011;7779;49.596;11.070;2022-08-19T05:21:28;17.30;;;15.60;;
15358;SDS011;7779;49.596;11.070;2022-08-19T05:24:14;16.53;;;14.93;;
15358;SDS011;7779;49.596;11.070;2022-08-19T05:26:43;16.03;;;14.53;;
15358;SDS011;7779;49.596;11.070;2022-08-19T05:29:12;17.10;;;15.40;;
15358;SDS011;7779;49.596;11.070;2022-08-19T05:31:41;17.00;;;15.30;;
15358;SDS011;7779;49.596;11.070;2022-08-19T05:34:07;17.10;;;15.40;;
15358;SDS011;7779;49.596;11.070;2022-08-19T05:36:38;17.23;;;15.53;;
15358;SDS011;7779;49.596;11.070;2022-08-19T05:39:09;17.00;;;15.30;;
15358;SDS011;7779;49.596;11.070;2022-08-19T05:41:42;17.03;;;15.33;;
15358;SDS011;7779;49.596;11.070;2022-08-19T05:44:11;17.20;;;15.57;;
15358;SDS011;7779;49.596;11.070;2022-08-19T05:46:37;16.33;;;14.73;;
15358;SDS011;7779;49.596;11.070;2022-08-19T05:49:04;16.27;;;14.73;;
15358;SDS011;7779;49.596;11.070;2022-08-19T05:51:33;17.53;;;15.80;;
15358;SDS011;7779;49.596;11.070;2022-08-19T05:54:05;17.27;;;15.67;;
15358;SDS011;7779;49.596;11.070;2022-08-19T05:56:33;17.03;;;15.40;;
15358;SDS011;7779;49.596;11.070;2022-08-19T05:59:03;16.73;;;15.17;;
15358;SDS011;7779;49.596;11.070;2022-08-19T06:01:34;16.53;;;15.03;;
15358;SDS011;7779;49.596;11.070;2022-08-19T06:04:02;17.13;;;15.33;;
15358;SDS011;7779;49.596;11.070;2022-08-19T06:06:29;16.90;;;15.30;;
15358;SDS011;7779;49.596;11.070;2022-08-19T06:08:55;17.37;;;15.73;;
15358;SDS011;7779;49.596;11.070;2022-08-19T06:13:51;16.30;;;14.77;;
15358;SDS011;7779;49.596;11.070;2022-08-19T06:16:19;16.10;;;14.60;;
15358;SDS011;7779;49.596;11.070;2022-08-19T06:18:56;15.70;;;14.20;;
15358;SDS011;7779;49.596;11.070;2022-08-19T06:21:25;15.90;;;14.40;;
15358;SDS011;7779;49.596;11.070;2022-08-19T06:23:54;16.83;;;15.13;;
15358;SDS011;7779;49.596;11.070;2022-08-19T06:26:22;16.23;;;14.60;;
15358;SDS011;7779;49.596;11.070;2022-08-19T06:28:49;15.80;;;14.30;;
15358;SDS011;7779;49.596;11.070;2022-08-19T06:31:23;15.60;;;14.20;;
15358;SDS011;7779;49.596;11.070;2022-08-19T06:33:52;14.40;;;13.10;;
15358;SDS011;7779;49.596;11.070;2022-08-19T06:39:09;14.53;;;13.10;;
15358;SDS011;7779;49.596;11.070;2022-08-19T06:41:50;15.33;;;13.87;;
15358;SDS011;7779;49.596;11.070;2022-08-19T06:44:20;15.23;;;13.73;;
15358;SDS011;7779;49.596;11.070;2022-08-19T06:46:48;16.47;;;14.80;;
15358;SDS011;7779;49.596;11.070;2022-08-19T06:49:15;16.17;;;14.67;;
15358;SDS011;7779;49.596;11.070;2022-08-19T06:51:43;15.20;;;13.80;;
15358;SDS011;7779;49.596;11.070;2022-08-19T06:54:14;15.73;;;14.23;;
15358;SDS011;7779;49.596;11.070;2022-08-19T06:56:43;15.37;;;13.87;;
15358;SDS011;7779;49.596;11.070;2022-08-19T06:59:12;16.07;;;14.57;;
15358;SDS011;7779;49.596;11.070;2022-08-19T07:01:44;16.57;;;14.97;;
15358;SDS011;7779;49.596;11.070;2022-08-19T07:04:25;17.63;;;15.83;;
15358;SDS011;7779;49.596;11.070;2022-08-19T07:06:57;16.63;;;15.07;;
15358;SDS011;7779;49.596;11.070;2022-08-19T07:09:33;16.37;;;14.87;;
15358;SDS011;7779;49.596;11.070;2022-08-19T07:12:02;16.47;;;14.87;;
15358;SDS011;7779;49.596;11.070;2022-08-19T07:14:31;16.10;;;14.60;;
15358;SDS011;7779;49.596;11.070;2022-08-19T07:17:03;17.30;;;15.67;;
15358;SDS011;7779;49.596;11.070;2022-08-19T07:19:33;15.50;;;14.07;;
15358;SDS011;7779;49.596;11.070;2022-08-19T07:22:01;16.27;;;14.23;;
15358;SDS011;7779;49.596;11.070;2022-08-19T07:24:30;15.37;;;13.87;;
15358;SDS011;7779;49.596;11.070;2022-08-19T07:26:57;14.67;;;13.20;;
15358;SDS011;7779;49.596;11.070;2022-08-19T07:29:27;14.97;;;13.43;;
15358;SDS011;7779;49.596;11.070;2022-08-19T07:31:58;14.80;;;13.30;;
15358;SDS011;7779;49.596;11.070;2022-08-19T07:34:27;13.53;;;12.33;;
15358;SDS011;7779;49.596;11.070;2022-08-19T07:36:55;15.63;;;13.97;;
15358;SDS011;7779;49.596;11.070;2022-08-19T07:39:26;16.20;;;14.63;;
15358;SDS011;7779;49.596;11.070;2022-08-19T07:41:58;14.67;;;13.17;;
15358;SDS011;7779;49.596;11.070;2022-08-19T07:44:27;14.10;;;12.80;;
15358;SDS011;7779;49.596;11.070;2022-08-19T07:46:54;14.80;;;13.40;;
15358;SDS011;7779;49.596;11.070;2022-08-19T07:49:22;14.43;;;13.03;;
15358;SDS011;7779;49.596;11.070;2022-08-19T07:51:50;14.30;;;13.00;;
15358;SDS011;7779;49.596;11.070;2022-08-19T07:54:22;14.53;;;12.93;;
15358;SDS011;7779;49.596;11.070;2022-08-19T07:56:52;14.43;;;12.97;;
15358;SDS011;7779;49.596;11.070;2022-08-19T07:59:18;14.10;;;12.70;;
15358;SDS011;7779;49.596;11.070;2022-08-19T08:01:46;14.50;;;13.20;;
15358;SDS011;7779;49.596;11.070;2022-08-19T08:04:13;14.43;;;13.03;;
15358;SDS011;7779;49.596;11.070;2022-08-19T08:06:58;14.40;;;13.00;;
15358;SDS011;7779;49.596;11.070;2022-08-19T08:09:43;14.57;;;13.17;;
15358;SDS011;7779;49.596;11.070;2022-08-19T08:12:11;15.20;;;13.70;;
15358;SDS011;7779;49.596;11.070;2022-08-19T08:14:47;15.27;;;13.77;;
15358;SDS011;7779;49.596;11.070;2022-08-19T08:17:17;15.60;;;14.00;;
15358;SDS011;7779;49.596;11.070;2022-08-19T08:19:46;15.87;;;14.33;;
15358;SDS011;7779;49.596;11.070;2022-08-19T08:22:14;15.60;;;14.10;;
15358;SDS011;7779;49.596;11.070;2022-08-19T08:25:08;15.97;;;14.47;;
15358;SDS011;7779;49.596;11.070;2022-08-19T08:27:41;15.97;;;14.37;;
15358;SDS011;7779;49.596;11.070;2022-08-19T08:30:12;16.57;;;14.97;;
15358;SDS011;7779;49.596;11.070;2022-08-19T08:32:50;16.30;;;14.63;;
15358;SDS011;7779;49.596;11.070;2022-08-19T08:35:19;16.57;;;14.97;;
15358;SDS011;7779;49.596;11.070;2022-08-19T08:37:49;15.60;;;14.07;;
15358;SDS011;7779;49.596;11.070;2022-08-19T08:40:23;17.10;;;15.50;;
15358;SDS011;7779;49.596;11.070;2022-08-19T08:51:42;14.10;;;12.73;;
15358;SDS011;7779;49.596;11.070;2022-08-19T08:54:35;14.70;;;13.27;;
15358;SDS011;7779;49.596;11.070;2022-08-19T08:57:13;14.40;;;13.03;;
15358;SDS011;7779;49.596;11.070;2022-08-19T09:00:14;13.93;;;12.63;;
15358;SDS011;7779;49.596;11.070;2022-08-19T09:02:55;13.73;;;12.33;;
15358;SDS011;7779;49.596;11.070;2022-08-19T09:05:26;15.10;;;13.67;;
15358;SDS011;7779;49.596;11.070;2022-08-19T09:08:17;14.70;;;13.30;;
15358;SDS011;7779;49.596;11.070;2022-08-19T09:10:58;14.20;;;12.90;;
15358;SDS011;7779;49.596;11.070;2022-08-19T09:13:42;14.97;;;13.47;;
15358;SDS011;7779;49.596;11.070;2022-08-19T09:16:29;14.53;;;13.13;;
15358;SDS011;7779;49.596;11.070;2022-08-19T09:18:57;14.67;;;13.27;;
15358;SDS011;7779;49.596;11.070;2022-08-19T09:21:28;14.77;;;13.27;;
15358;SDS011;7779;49.596;11.070;2022-08-19T09:23:54;15.60;;;14.10;;
15358;SDS011;7779;49.596;11.070;2022-08-19T09:26:21;16.90;;;14.70;;
15358;SDS011;7779;49.596;11.070;2022-08-19T09:28:49;15.37;;;13.87;;
15358;SDS011;7779;49.596;11.070;2022-08-19T09:31:18;15.00;;;13.50;;
15358;SDS011;7779;49.596;11.070;2022-08-19T09:33:48;16.33;;;14.73;;
15358;SDS011;7779;49.596;11.070;2022-08-19T09:36:16;15.93;;;13.90;;
15358;SDS011;7779;49.596;11.070;2022-08-19T09:38:45;15.60;;;14.03;;
15358;SDS011;7779;49.596;11.070;2022-08-19T09:41:13;15.83;;;14.23;;
15358;SDS011;7779;49.596;11.070;2022-08-19T09:43:45;15.53;;;13.87;;
15358;SDS011;7779;49.596;11.070;2022-08-19T09:46:14;14.50;;;13.03;;
15358;SDS011;7779;49.596;11.070;2022-08-19T09:48:43;15.27;;;13.77;;
15358;SDS011;7779;49.596;11.070;2022-08-19T09:51:13;15.67;;;14.17;;
15358;SDS011;7779;49.596;11.070;2022-08-19T09:53:45;15.07;;;13.47;;
15358;SDS011;7779;49.596;11.070;2022-08-19T09:56:15;14.97;;;13.47;;
15358;SDS011;7779;49.596;11.070;2022-08-19T09:58:44;14.73;;;13.33;;
15358;SDS011;7779;49.596;11.070;2022-08-19T10:01:15;15.13;;;13.63;;
15358;SDS011;7779;49.596;11.070;2022-08-19T10:03:50;14.77;;;13.27;;
15358;SDS011;7779;49.596;11.070;2022-08-19T10:06:23;14.23;;;12.90;;
15358;SDS011;7779;49.596;11.070;2022-08-19T10:08:55;14.20;;;12.70;;
15358;SDS011;7779;49.596;11.070;2022-08-19T10:11:21;14.13;;;12.63;;
15358;SDS011;7779;49.596;11.070;2022-08-19T10:13:47;14.20;;;12.83;;
15358;SDS011;7779;49.596;11.070;2022-08-19T10:16:14;13.60;;;12.30;;
15358;SDS011;7779;49.596;11.070;2022-08-19T10:18:45;13.43;;;12.23;;
15358;SDS011;7779;49.596;11.070;2022-08-19T10:21:15;14.63;;;12.43;;
15358;SDS011;7779;49.596;11.070;2022-08-19T10:23:51;13.57;;;12.13;;
15358;SDS011;7779;49.596;11.070;2022-08-19T10:26:25;13.30;;;12.00;;
15358;SDS011;7779;49.596;11.070;2022-08-19T10:28:55;13.17;;;11.90;;
15358;SDS011;7779;49.596;11.070;2022-08-19T10:31:22;13.27;;;12.07;;
15358;SDS011;7779;49.596;11.070;2022-08-19T10:33:55;13.90;;;12.60;;
15358;SDS011;7779;49.596;11.070;2022-08-19T10:36:26;13.47;;;12.07;;
15358;SDS011;7779;49.596;11.070;2022-08-19T10:39:04;13.70;;;12.40;;
15358;SDS011;7779;49.596;11.070;2022-08-19T10:41:36;13.90;;;12.40;;
15358;SDS011;7779;49.596;11.070;2022-08-19T10:44:08;13.30;;;12.00;;
15358;SDS011;7779;49.596;11.070;2022-08-19T10:46:38;12.13;;;11.03;;
15358;SDS011;7779;49.596;11.070;2022-08-19T10:49:09;12.87;;;11.77;;
15358;SDS011;7779;49.596;11.070;2022-08-19T10:51:37;13.43;;;12.10;;
15358;SDS011;7779;49.596;11.070;2022-08-19T10:54:23;12.50;;;11.33;;
15358;SDS011;7779;49.596;11.070;2022-08-19T10:57:09;12.77;;;11.57;;
15358;SDS011;7779;49.596;11.070;2022-08-19T10:59:35;12.10;;;10.90;;
15358;SDS011;7779;49.596;11.070;2022-08-19T11:02:03;11.80;;;10.67;;
15358;SDS011;7779;49.596;11.070;2022-08-19T11:04:35;12.00;;;10.93;;
15358;SDS011;7779;49.596;11.070;2022-08-19T11:07:03;12.37;;;11.23;;
15358;SDS011;7779;49.596;11.070;2022-08-19T11:09:30;11.93;;;10.73;;
15358;SDS011;7779;49.596;11.070;2022-08-19T11:12:01;11.23;;;10.23;;
15358;SDS011;7779;49.596;11.070;2022-08-19T11:14:28;12.83;;;10.83;;
15358;SDS011;7779;49.596;11.070;2022-08-19T11:16:55;11.40;;;10.40;;
15358;SDS011;7779;49.596;11.070;2022-08-19T11:19:22;11.27;;;10.27;;
15358;SDS011;7779;49.596;11.070;2022-08-19T11:21:49;11.27;;;10.20;;
15358;SDS011;7779;49.596;11.070;2022-08-19T11:24:18;11.27;;;10.17;;
15358;SDS011;7779;49.596;11.070;2022-08-19T11:26:48;11.80;;;10.63;;
15358;SDS011;7779;49.596;11.070;2022-08-19T11:29:18;12.23;;;11.03;;
15358;SDS011;7779;49.596;11.070;2022-08-19T11:31:47;11.43;;;10.33;;
15358;SDS011;7779;49.596;11.070;2022-08-19T11:34:17;11.70;;;10.63;;
15358;SDS011;7779;49.596;11.070;2022-08-19T11:36:46;11.53;;;10.43;;
15358;SDS011;7779;49.596;11.070;2022-08-19T11:39:16;11.67;;;10.57;;
15358;SDS011;7779;49.596;11.070;2022-08-19T11:41:45;11.90;;;10.80;;
15358;SDS011;7779;49.596;11.070;2022-08-19T11:44:12;11.57;;;10.57;;
15358;SDS011;7779;49.596;11.070;2022-08-19T11:46:39;12.20;;;10.90;;
15358;SDS011;7779;49.596;11.070;2022-08-19T11:49:12;11.60;;;10.60;;
15358;SDS011;7779;49.596;11.070;2022-08-19T11:51:41;12.90;;;11.67;;
15358;SDS011;7779;49.596;11.070;2022-08-19T11:54:11;11.90;;;10.67;;
15358;SDS011;7779;49.596;11.070;2022-08-19T11:56:39;12.10;;;11.00;;
15358;SDS011;7779;49.596;11.070;2022-08-19T11:59:06;12.50;;;11.33;;
15358;SDS011;7779;49.596;11.070;2022-08-19T12:01:32;11.50;;;10.50;;
15358;SDS011;7779;49.596;11.070;2022-08-19T12:03:59;11.63;;;10.63;;
15358;SDS011;7779;49.596;11.070;2022-08-19T12:06:27;12.07;;;10.87;;
15358;SDS011;7779;49.596;11.070;2022-08-19T12:08:57;11.30;;;10.27;;
15358;SDS011;7779;49.596;11.070;2022-08-19T12:11:26;11.67;;;10.67;;
15358;SDS011;7779;49.596;11.070;2022-08-19T12:13:53;11.87;;;10.87;;
15358;SDS011;7779;49.596;11.070;2022-08-19T12:16:20;11.60;;;10.60;;
15358;SDS011;7779;49.596;11.070;2022-08-19T12:18:49;11.20;;;10.20;;
15358;SDS011;7779;49.596;11.070;2022-08-19T12:21:17;12.90;;;11.73;;
15358;SDS011;7779;49.596;11.070;2022-08-19T12:23:55;12.23;;;11.03;;
15358;SDS011;7779;49.596;11.070;2022-08-19T12:26:24;11.77;;;10.77;;
15358;SDS011;7779;49.596;11.070;2022-08-19T12:28:52;11.97;;;10.87;;
15358;SDS011;7779;49.596;11.070;2022-08-19T12:31:18;12.90;;;11.70;;
15358;SDS011;7779;49.596;11.070;2022-08-19T12:33:44;12.17;;;11.07;;
15358;SDS011;7779;49.596;11.070;2022-08-19T12:36:13;12.43;;;11.23;;
15358;SDS011;7779;49.596;11.070;2022-08-19T12:38:40;12.93;;;11.73;;
15358;SDS011;7779;49.596;11.070;2022-08-19T12:41:10;12.80;;;11.60;;
15358;SDS011;7779;49.596;11.070;2022-08-19T12:43:39;12.07;;;10.97;;
15358;SDS011;7779;49.596;11.070;2022-08-19T12:46:07;11.53;;;10.53;;
15358;SDS011;7779;49.596;11.070;2022-08-19T12:48:33;13.00;;;11.77;;
15358;SDS011;7779;49.596;11.070;2022-08-19T12:51:00;13.00;;;11.70;;
15358;SDS011;7779;49.596;11.070;2022-08-19T12:53:32;12.33;;;11.17;;
15358;SDS011;7779;49.596;11.070;2022-08-19T12:55:58;13.53;;;11.97;;
15358;SDS011;7779;49.596;11.070;2022-08-19T12:58:25;12.83;;;11.70;;
15358;SDS011;7779;49.596;11.070;2022-08-19T13:00:53;13.83;;;12.43;;
15358;SDS011;7779;49.596;11.070;2022-08-19T13:03:19;13.37;;;12.00;;
15358;SDS011;7779;49.596;11.070;2022-08-19T13:05:47;14.13;;;12.73;;
15358;SDS011;7779;49.596;11.070;2022-08-19T13:08:15;13.50;;;12.40;;
15358;SDS011;7779;49.596;11.070;2022-08-19T13:10:42;13.93;;;12.63;;
15358;SDS011;7779;49.596;11.070;2022-08-19T13:13:08;13.07;;;11.87;;
15358;SDS011;7779;49.596;11.070;2022-08-19T13:15:38;12.43;;;11.33;;
15358;SDS011;7779;49.596;11.070;2022-08-19T13:18:07;11.63;;;10.53;;
15358;SDS011;7779;49.596;11.070;2022-08-19T13:20:35;13.13;;;11.67;;
15358;SDS011;7779;49.596;11.070;2022-08-19T13:23:02;13.20;;;12.00;;
15358;SDS011;7779;49.596;11.070;2022-08-19T13:25:29;13.70;;;12.40;;
15358;SDS011;7779;49.596;11.070;2022-08-19T13:27:56;13.20;;;11.90;;
15358;SDS011;7779;49.596;11.070;2022-08-19T13:30:21;13.60;;;12.40;;
15358;SDS011;7779;49.596;11.070;2022-08-19T13:33:07;13.43;;;12.10;;
15358;SDS011;7779;49.596;11.070;2022-08-19T13:35:41;13.40;;;12.10;;
15358;SDS011;7779;49.596;11.070;2022-08-19T13:38:23;13.07;;;11.87;;
15358;SDS011;7779;49.596;11.070;2022-08-19T13:40:50;14.17;;;12.90;;
15358;SDS011;7779;49.596;11.070;2022-08-19T13:43:18;13.63;;;12.33;;
15358;SDS011;7779;49.596;11.070;2022-08-19T13:45:50;14.17;;;12.87;;
15358;SDS011;7779;49.596;11.070;2022-08-19T13:48:21;13.63;;;12.33;;
15358;SDS011;7779;49.596;11.070;2022-08-19T13:50:48;13.73;;;12.50;;
15358;SDS011;7779;49.596;11.070;2022-08-19T13:53:14;14.43;;;13.03;;
15358;SDS011;7779;49.596;11.070;2022-08-19T13:55:41;12.63;;;11.43;;
15358;SDS011;7779;49.596;11.070;2022-08-19T13:58:09;11.73;;;10.67;;
15358;SDS011;7779;49.596;11.070;2022-08-19T14:00:39;11.67;;;10.57;;
15358;SDS011;7779;49.596;11.070;2022-08-19T14:03:09;10.40;;;9.50;;
15358;SDS011;7779;49.596;11.070;2022-08-19T14:05:35;10.17;;;9.37;;
15358;SDS011;7779;49.596;11.070;2022-08-19T14:08:02;10.30;;;9.40;;
15358;SDS011;7779;49.596;11.070;2022-08-19T14:10:29;9.40;;;8.60;;
15358;SDS011;7779;49.596;11.070;2022-08-19T14:12:57;9.27;;;8.47;;
15358;SDS011;7779;49.596;11.070;2022-08-19T14:15:26;9.30;;;8.50;;
15358;SDS011;7779;49.596;11.070;2022-08-19T14:17:54;8.63;;;7.93;;
15358;SDS011;7779;49.596;11.070;2022-08-19T14:20:20;9.43;;;8.53;;
15358;SDS011;7779;49.596;11.070;2022-08-19T14:22:47;8.73;;;7.93;;
15358;SDS011;7779;49.596;11.070;2022-08-19T14:25:16;9.10;;;8.27;;
15358;SDS011;7779;49.596;11.070;2022-08-19T14:27:45;9.03;;;8.23;;
15358;SDS011;7779;49.596;11.070;2022-08-19T14:30:13;9.40;;;8.60;;
15358;SDS011;7779;49.596;11.070;2022-08-19T14:32:42;9.40;;;8.60;;
15358;SDS011;7779;49.596;11.070;2022-08-19T14:35:08;9.87;;;8.97;;
15358;SDS011;7779;49.596;11.070;2022-08-19T14:37:37;9.70;;;8.80;;
15358;SDS011;7779;49.596;11.070;2022-08-19T14:40:05;8.87;;;8.07;;
15358;SDS011;7779;49.596;11.070;2022-08-19T14:42:32;8.77;;;7.97;;
15358;SDS011;7779;49.596;11.070;2022-08-19T14:44:59;9.13;;;8.23;;
15358;SDS011;7779;49.596;11.070;2022-08-19T14:47:26;8.63;;;7.83;;
15358;SDS011;7779;49.596;11.070;2022-08-19T14:49:52;9.13;;;8.33;;
15358;SDS011;7779;49.596;11.070;2022-08-19T14:52:19;8.80;;;8.00;;
15358;SDS011;7779;49.596;11.070;2022-08-19T14:54:45;9.33;;;8.47;;
15358;SDS011;7779;49.596;11.070;2022-08-19T14:57:12;8.83;;;8.10;;
15358;SDS011;7779;49.596;11.070;2022-08-19T14:59:40;8.77;;;8.07;;
15358;SDS011;7779;49.596;11.070;2022-08-19T15:02:08;8.90;;;8.10;;